createdAt,value
2018-04-02T00:01:12.078Z,20.70
2018-04-02T00:03:40.230Z,22.43
2018-04-02T00:06:09.142Z,23.95
2018-04-02T00:08:37.286Z,23.23
2018-04-02T00:11:05.481Z,21.60
2018-04-02T00:13:33.618Z,22.85
2018-04-02T00:16:02.531Z,22.02
2018-04-02T00:18:30.675Z,21.07
2018-04-02T00:20:59.595Z,22.33
2018-04-02T00:23:27.738Z,22.15
2018-04-02T00:25:56.655Z,22.45
2018-04-02T00:28:24.799Z,20.60
2018-04-02T00:30:53.723Z,21.30
2018-04-02T00:33:21.886Z,23.00
2018-04-02T00:35:50.037Z,24.77
2018-04-02T00:38:18.953Z,23.23
2018-04-02T00:40:47.119Z,23.62
2018-04-02T00:43:15.670Z,22.42
2018-04-02T00:45:43.821Z,23.33
2018-04-02T00:48:11.989Z,25.62
2018-04-02T00:50:41.005Z,24.12
2018-04-02T00:53:09.175Z,23.75
2018-04-02T00:55:37.301Z,23.05
2018-04-02T00:58:05.493Z,22.20
2018-04-02T01:00:33.620Z,25.10
2018-04-02T01:03:01.767Z,26.30
2018-04-02T01:05:30.666Z,24.65
2018-04-02T01:07:59.583Z,25.60
2018-04-02T01:10:27.738Z,23.05
2018-04-02T01:12:55.890Z,25.02
2018-04-02T01:15:24.038Z,23.87
2018-04-02T01:17:52.187Z,23.33
2018-04-02T01:20:20.331Z,26.10
2018-04-02T01:22:48.486Z,25.33
2018-04-02T01:25:17.394Z,23.87
2018-04-02T01:27:46.303Z,24.50
2018-04-02T01:30:29.423Z,24.02
2018-04-02T01:32:57.588Z,23.77
2018-04-02T01:35:25.730Z,25.90
2018-04-02T01:37:53.903Z,24.63
2018-04-02T01:40:22.086Z,24.27
2018-04-02T01:42:50.251Z,25.33
2018-04-02T01:45:19.159Z,29.85
2018-04-02T01:47:47.347Z,23.48
2018-04-02T01:50:15.526Z,24.27
2018-04-02T01:52:43.694Z,24.40
2018-04-02T01:55:11.845Z,24.67
2018-04-02T01:57:40.019Z,26.08
2018-04-02T02:00:08.281Z,23.80
2018-04-02T02:02:37.200Z,25.05
2018-04-02T02:05:05.357Z,24.73
2018-04-02T02:07:33.493Z,23.25
2018-04-02T02:10:01.650Z,26.65
2018-04-02T02:12:29.827Z,24.77
2018-04-02T02:14:58.057Z,24.80
2018-04-02T02:17:26.194Z,31.50
2018-04-02T02:19:54.341Z,26.60
2018-04-02T02:22:22.479Z,25.08
2018-04-02T02:24:50.712Z,25.42
2018-04-02T02:27:18.847Z,22.23
2018-04-02T02:29:47.011Z,25.08
2018-04-02T02:32:15.155Z,25.70
2018-04-02T02:34:43.313Z,28.50
2018-04-02T02:37:12.250Z,29.65
2018-04-02T02:39:40.414Z,27.75
2018-04-02T02:42:08.556Z,27.02
2018-04-02T02:44:36.700Z,26.60
2018-04-02T02:47:04.832Z,25.55
2018-04-02T02:49:32.991Z,25.12
2018-04-02T02:52:01.143Z,24.70
2018-04-02T02:54:29.292Z,23.40
2018-04-02T02:56:58.208Z,25.62
2018-04-02T02:59:26.358Z,25.02
2018-04-02T03:01:54.518Z,23.87
2018-04-02T03:04:22.650Z,24.70
2018-04-02T03:06:50.806Z,24.10
2018-04-02T03:09:18.939Z,28.73
2018-04-02T03:11:47.876Z,24.65
2018-04-02T03:14:16.041Z,25.40
2018-04-02T03:16:44.173Z,25.77
2018-04-02T03:19:13.081Z,26.60
2018-04-02T03:21:41.348Z,27.17
2018-04-02T03:24:09.487Z,23.23
2018-04-02T03:26:37.650Z,32.60
2018-04-02T03:29:05.790Z,24.70
2018-04-02T03:31:33.940Z,23.20
2018-04-02T03:34:02.877Z,26.05
2018-04-02T03:36:31.049Z,22.75
2018-04-02T03:38:59.178Z,23.90
2018-04-02T03:44:01.781Z,21.62
2018-04-02T03:46:29.938Z,24.92
2018-04-02T03:48:58.088Z,23.62
2018-04-02T03:51:26.239Z,26.35
2018-04-02T03:53:54.390Z,23.73
2018-04-02T03:56:22.528Z,24.87
2018-04-02T03:58:50.684Z,26.42
2018-04-02T04:01:19.590Z,24.70
2018-04-02T04:03:47.742Z,27.00
2018-04-02T04:06:16.663Z,28.27
2018-04-02T04:08:44.837Z,22.35
2018-04-02T04:11:12.965Z,25.25
2018-04-02T04:13:41.110Z,24.30
2018-04-02T04:16:09.258Z,26.50
2018-04-02T04:18:37.423Z,25.92
2018-04-02T04:21:05.550Z,26.73
2018-04-02T04:23:33.670Z,23.73
2018-04-02T04:26:01.839Z,23.48
2018-04-02T04:28:30.702Z,27.60
2018-04-02T04:30:59.698Z,23.23
2018-04-02T04:33:27.823Z,22.08
2018-04-02T04:35:55.968Z,26.33
2018-04-02T04:38:24.100Z,26.37
2018-04-02T04:40:52.245Z,28.85
2018-04-02T04:43:20.370Z,32.15
2018-04-02T04:45:48.541Z,25.37
2018-04-02T04:48:16.677Z,27.85
2018-04-02T04:50:44.837Z,27.15
2018-04-02T04:53:12.983Z,24.30
2018-04-02T04:55:41.131Z,26.50
2018-04-02T04:58:09.263Z,25.05
2018-04-02T05:00:37.450Z,25.83
2018-04-02T05:03:06.355Z,23.70
2018-04-02T05:05:34.510Z,23.48
2018-04-02T05:08:03.406Z,26.40
2018-04-02T05:10:31.555Z,27.90
2018-04-02T05:12:59.691Z,23.70
2018-04-02T05:15:27.851Z,36.30
2018-04-02T05:17:55.997Z,30.35
2018-04-02T05:20:24.906Z,24.20
2018-04-02T05:22:53.078Z,24.98
2018-04-02T05:25:21.962Z,23.35
2018-04-02T05:27:50.122Z,21.85
2018-04-02T05:30:19.099Z,22.13
2018-04-02T05:32:47.265Z,21.70
2018-04-02T05:35:15.405Z,24.55
2018-04-02T05:37:43.571Z,24.73
2018-04-02T05:40:11.700Z,22.40
2018-04-02T05:42:40.626Z,23.23
2018-04-02T05:45:08.763Z,20.17
2018-04-02T05:47:36.922Z,23.20
2018-04-02T05:50:05.818Z,21.85
2018-04-02T05:52:34.729Z,26.62
2018-04-02T05:55:02.863Z,19.98
2018-04-02T05:57:31.035Z,22.35
2018-04-02T05:59:59.210Z,19.83
2018-04-02T06:02:28.126Z,20.17
2018-04-02T06:04:56.257Z,20.50
2018-04-02T06:07:24.410Z,20.05
2018-04-02T06:09:52.594Z,21.73
2018-04-02T06:12:20.907Z,22.40
2018-04-02T06:14:49.808Z,23.45
2018-04-02T06:17:17.953Z,21.63
2018-04-02T06:19:46.087Z,20.40
2018-04-02T06:22:15.741Z,20.30
2018-04-02T06:24:44.650Z,23.53
2018-04-02T06:27:12.813Z,19.50
2018-04-02T06:29:41.718Z,18.47
2018-04-02T06:32:09.869Z,17.53
2018-04-02T06:34:38.023Z,19.97
2018-04-02T06:37:06.224Z,17.87
2018-04-02T06:39:34.317Z,16.33
2018-04-02T06:42:02.455Z,19.10
2018-04-02T06:44:30.587Z,17.90
2018-04-02T06:46:58.748Z,15.60
2018-04-02T06:49:26.903Z,17.67
2018-04-02T06:51:55.097Z,17.40
2018-04-02T06:54:23.267Z,14.83
2018-04-02T06:56:51.393Z,13.93
2018-04-02T06:59:20.312Z,14.50
2018-04-02T07:01:48.458Z,14.60
2018-04-02T07:04:16.646Z,14.80
2018-04-02T07:06:44.762Z,15.37
2018-04-02T07:09:12.901Z,13.83
2018-04-02T07:11:41.050Z,17.17
2018-04-02T07:14:09.531Z,13.30
2018-04-02T07:16:37.674Z,12.60
2018-04-02T07:19:05.795Z,13.50
2018-04-02T07:21:33.933Z,13.97
2018-04-02T07:24:02.054Z,13.53
2018-04-02T07:26:30.214Z,12.50
2018-04-02T07:28:58.366Z,13.00
2018-04-02T07:31:26.504Z,12.70
2018-04-02T07:33:55.398Z,11.57
2018-04-02T07:36:24.321Z,12.33
2018-04-02T07:38:52.448Z,12.40
2018-04-02T07:41:20.655Z,12.53
2018-04-02T07:43:50.050Z,12.30
2018-04-02T07:46:18.238Z,12.37
2018-04-02T07:48:46.737Z,11.90
2018-04-02T07:51:14.866Z,13.87
2018-04-02T07:53:43.002Z,12.40
2018-04-02T07:56:11.145Z,12.43
2018-04-02T07:58:39.346Z,11.20
2018-04-02T08:01:07.674Z,12.57
2018-04-02T08:03:35.801Z,12.40
2018-04-02T08:06:03.947Z,13.87
2018-04-02T08:08:32.083Z,11.17
2018-04-02T08:11:00.210Z,12.10
2018-04-02T08:13:28.369Z,13.00
2018-04-02T08:15:56.569Z,14.67
2018-04-02T08:18:24.729Z,12.03
2018-04-02T08:20:52.975Z,12.83
2018-04-02T08:23:21.225Z,13.80
2018-04-02T08:25:49.369Z,12.30
2018-04-02T08:28:17.548Z,14.10
2018-04-02T08:30:45.713Z,12.83
2018-04-02T08:33:13.863Z,12.50
2018-04-02T08:35:42.101Z,12.57
2018-04-02T08:38:11.009Z,13.27
2018-04-02T08:40:39.140Z,12.10
2018-04-02T08:43:08.110Z,12.60
2018-04-02T08:45:36.246Z,12.60
2018-04-02T08:48:04.397Z,12.37
2018-04-02T08:50:32.613Z,12.07
2018-04-02T08:53:01.542Z,11.63
2018-04-02T08:55:29.677Z,11.50
2018-04-02T08:57:57.830Z,10.43
2018-04-02T09:00:25.951Z,10.40
2018-04-02T09:02:54.084Z,10.30
2018-04-02T09:05:22.990Z,10.20
2018-04-02T09:07:51.125Z,11.27
2018-04-02T09:10:19.270Z,10.70
2018-04-02T09:12:48.167Z,9.57
2018-04-02T09:15:16.317Z,10.57
2018-04-02T09:17:44.503Z,8.77
2018-04-02T09:20:12.645Z,10.47
2018-04-02T09:22:40.779Z,10.30
2018-04-02T09:25:09.682Z,8.10
2018-04-02T09:27:37.825Z,9.67
2018-04-02T09:30:07.045Z,10.60
2018-04-02T09:32:35.186Z,7.83
2018-04-02T09:35:03.335Z,7.90
2018-04-02T09:37:31.456Z,8.23
2018-04-02T09:39:59.602Z,8.13
2018-04-02T09:42:27.754Z,8.13
2018-04-02T09:44:55.889Z,9.63
2018-04-02T09:47:24.020Z,8.77
2018-04-02T09:49:52.169Z,9.50
2018-04-02T09:52:20.308Z,7.90
2018-04-02T09:54:48.432Z,8.30
2018-04-02T09:57:16.583Z,8.97
2018-04-02T09:59:44.699Z,8.97
2018-04-02T10:02:13.597Z,8.93
2018-04-02T10:04:42.714Z,8.70
2018-04-02T10:07:10.713Z,9.30
2018-04-02T10:09:38.829Z,10.77
2018-04-02T10:12:08.009Z,10.60
2018-04-02T10:14:36.919Z,7.83
2018-04-02T10:17:05.084Z,8.47
2018-04-02T10:19:33.194Z,8.70
2018-04-02T10:22:01.334Z,8.03
2018-04-02T10:24:29.460Z,8.30
2018-04-02T10:26:57.590Z,8.60
2018-04-02T10:29:25.713Z,6.80
2018-04-02T10:31:53.858Z,7.20
2018-04-02T10:34:21.979Z,7.33
2018-04-02T10:36:51.014Z,7.50
2018-04-02T10:39:19.215Z,7.87
2018-04-02T10:41:47.406Z,8.20
2018-04-02T10:44:15.550Z,8.00
2018-04-02T10:46:44.442Z,8.00
2018-04-02T10:49:12.588Z,7.50
2018-04-02T10:51:40.824Z,8.30
2018-04-02T10:54:09.780Z,8.23
2018-04-02T10:56:38.004Z,7.73
2018-04-02T10:59:06.229Z,7.60
2018-04-02T11:01:35.782Z,7.13
2018-04-02T11:04:04.087Z,8.40
2018-04-02T11:06:32.271Z,7.10
2018-04-02T11:09:01.188Z,7.30
2018-04-02T11:11:29.386Z,7.00
2018-04-02T11:13:57.774Z,6.10
2018-04-02T11:16:25.902Z,7.00
2018-04-02T11:18:54.065Z,6.40
2018-04-02T11:21:22.223Z,6.87
2018-04-02T11:23:51.106Z,6.37
2018-04-02T11:26:20.006Z,7.27
2018-04-02T11:28:48.185Z,7.60
2018-04-02T11:31:17.219Z,7.37
2018-04-02T11:33:45.461Z,7.47
2018-04-02T11:36:13.577Z,8.00
2018-04-02T11:38:41.760Z,8.03
2018-04-02T11:41:10.286Z,6.60
2018-04-02T11:43:38.434Z,7.70
2018-04-02T11:46:06.919Z,7.77
2018-04-02T11:48:35.027Z,7.80
2018-04-02T11:51:03.951Z,7.17
2018-04-02T11:53:32.082Z,6.77
2018-04-02T11:56:00.221Z,6.80
2018-04-02T11:58:28.333Z,6.60
2018-04-02T12:00:57.233Z,9.67
2018-04-02T12:03:26.130Z,6.40
2018-04-02T12:05:54.265Z,5.80
2018-04-02T12:08:22.381Z,6.37
2018-04-02T12:10:50.533Z,6.40
2018-04-02T12:13:19.412Z,6.67
2018-04-02T12:15:47.550Z,6.17
2018-04-02T12:18:15.670Z,6.00
2018-04-02T12:20:43.815Z,6.50
2018-04-02T12:23:11.949Z,5.67
2018-04-02T12:25:40.090Z,6.10
2018-04-02T12:28:08.214Z,4.83
2018-04-02T12:30:37.205Z,6.13
2018-04-02T12:33:05.330Z,6.77
2018-04-02T12:35:33.471Z,6.00
2018-04-02T12:38:01.592Z,5.00
2018-04-02T12:40:29.711Z,5.77
2018-04-02T12:42:57.870Z,5.20
2018-04-02T12:45:25.989Z,4.97
2018-04-02T12:47:54.141Z,4.40
2018-04-02T12:50:23.030Z,4.97
2018-04-02T12:52:51.937Z,4.33
2018-04-02T12:55:20.066Z,4.90
2018-04-02T12:57:48.321Z,4.87
2018-04-02T13:00:17.206Z,3.83
2018-04-02T13:02:45.342Z,4.33
2018-04-02T13:05:13.493Z,4.97
2018-04-02T13:07:41.634Z,4.20
2018-04-02T13:10:09.759Z,4.17
2018-04-02T13:12:37.899Z,3.77
2018-04-02T13:15:06.790Z,4.03
2018-04-02T13:17:35.690Z,3.97
2018-04-02T13:20:03.811Z,3.60
2018-04-02T13:22:31.942Z,4.20
2018-04-02T13:25:00.069Z,4.23
2018-04-02T13:27:28.210Z,3.70
2018-04-02T13:29:56.321Z,4.77
2018-04-02T13:32:25.229Z,4.70
2018-04-02T13:34:54.131Z,4.20
2018-04-02T13:37:23.086Z,3.80
2018-04-02T13:39:51.327Z,3.57
2018-04-02T13:42:19.477Z,3.90
2018-04-02T13:44:47.613Z,4.03
2018-04-02T13:47:15.737Z,4.20
2018-04-02T13:49:43.993Z,3.70
2018-04-02T13:52:12.116Z,4.20
2018-04-02T13:54:40.290Z,3.30
2018-04-02T13:57:08.402Z,2.77
2018-04-02T13:59:36.542Z,3.17
2018-04-02T14:02:04.685Z,2.77
2018-04-02T14:04:32.811Z,2.90
2018-04-02T14:07:00.934Z,2.27
2018-04-02T14:09:29.072Z,3.63
2018-04-02T14:11:57.189Z,2.47
2018-04-02T14:14:25.325Z,2.63
2018-04-02T14:16:53.444Z,2.50
2018-04-02T14:19:21.586Z,2.90
2018-04-02T14:21:49.710Z,2.87
2018-04-02T14:24:17.842Z,2.67
2018-04-02T14:26:45.959Z,2.40
2018-04-02T14:29:14.107Z,3.17
2018-04-02T14:31:42.987Z,3.03
2018-04-02T14:34:11.905Z,2.70
2018-04-02T14:36:40.038Z,2.90
2018-04-02T14:39:08.169Z,2.57
2018-04-02T14:41:36.306Z,3.60
2018-04-02T14:44:04.422Z,3.20
2018-04-02T14:46:32.550Z,3.20
2018-04-02T14:49:00.678Z,2.67
2018-04-02T14:51:28.810Z,3.13
2018-04-02T14:53:56.929Z,4.97
2018-04-02T14:56:25.070Z,3.60
2018-04-02T14:58:53.195Z,3.27
2018-04-02T15:01:22.094Z,2.97
2018-04-02T15:03:50.216Z,3.23
2018-04-02T15:06:18.350Z,3.40
2018-04-02T15:08:46.486Z,3.77
2018-04-02T15:11:14.623Z,3.30
2018-04-02T15:13:43.509Z,2.93
2018-04-02T15:16:11.668Z,4.00
2018-04-02T15:18:39.778Z,3.20
2018-04-02T15:21:07.918Z,3.63
2018-04-02T15:23:36.045Z,2.60
2018-04-02T15:26:04.195Z,3.00
2018-04-02T15:28:32.333Z,3.17
2018-04-02T15:31:00.454Z,3.30
2018-04-02T15:33:28.618Z,2.47
2018-04-02T15:35:56.737Z,3.40
2018-04-02T15:38:24.887Z,2.70
2018-04-02T15:40:53.023Z,2.40
2018-04-02T15:43:21.164Z,2.77
2018-04-02T15:45:49.280Z,3.80
2018-04-02T15:48:18.197Z,3.57
2018-04-02T15:50:46.351Z,4.83
2018-04-02T15:53:14.497Z,4.17
2018-04-02T15:55:42.620Z,2.90
2018-04-02T15:58:10.767Z,3.60
2018-04-02T16:00:39.654Z,2.83
2018-04-02T16:03:08.575Z,3.23
2018-04-02T16:05:36.681Z,3.23
2018-04-02T16:08:04.817Z,3.07
2018-04-02T16:10:33.041Z,3.33
2018-04-02T16:13:01.530Z,2.83
2018-04-02T16:15:30.430Z,2.40
2018-04-02T16:17:58.542Z,3.50
2018-04-02T16:20:26.682Z,3.30
2018-04-02T16:22:54.809Z,2.70
2018-04-02T16:25:22.954Z,2.93
2018-04-02T16:27:51.085Z,2.63
2018-04-02T16:30:19.990Z,3.83
2018-04-02T16:32:48.101Z,3.00
2018-04-02T16:35:16.238Z,2.90
2018-04-02T16:37:44.523Z,2.33
2018-04-02T16:40:12.747Z,3.20
2018-04-02T16:42:40.878Z,2.30
2018-04-02T16:45:09.018Z,3.07
2018-04-02T16:47:37.145Z,2.70
2018-04-02T16:50:06.065Z,2.80
2018-04-02T16:52:34.955Z,2.20
2018-04-02T16:55:03.850Z,2.40
2018-04-02T16:57:31.966Z,3.13
2018-04-02T17:00:00.471Z,2.37
2018-04-02T17:02:28.533Z,3.53
2018-04-02T17:04:56.669Z,2.67
2018-04-02T17:07:24.789Z,2.40
2018-04-02T17:09:52.933Z,2.40
2018-04-02T17:12:21.064Z,2.30
2018-04-02T17:14:49.190Z,2.60
2018-04-02T17:17:17.325Z,2.67
2018-04-02T17:19:45.481Z,2.50
2018-04-02T17:22:13.622Z,2.00
2018-04-02T17:24:42.508Z,1.90
2018-04-02T17:27:10.648Z,2.20
2018-04-02T17:29:38.775Z,1.97
2018-04-02T17:32:07.670Z,2.00
2018-04-02T17:34:35.790Z,1.70
2018-04-02T17:37:03.926Z,1.93
2018-04-02T17:39:32.245Z,2.00
2018-04-02T17:42:00.381Z,2.40
2018-04-02T17:44:28.495Z,2.60
2018-04-02T17:46:57.273Z,6.80
2018-04-02T17:49:26.911Z,8.37
2018-04-02T17:51:55.063Z,4.77
2018-04-02T17:54:23.266Z,2.00
2018-04-02T17:56:51.390Z,2.40
2018-04-02T17:59:19.514Z,2.30
2018-04-02T18:01:47.682Z,2.60
2018-04-02T18:04:15.813Z,2.50
2018-04-02T18:06:43.977Z,1.87
2018-04-02T18:09:12.119Z,1.80
2018-04-02T18:11:40.257Z,3.23
2018-04-02T18:14:09.494Z,1.67
2018-04-02T18:16:37.664Z,2.13
2018-04-02T18:19:06.189Z,2.20
2018-04-02T18:21:34.335Z,1.80
2018-04-02T18:24:02.498Z,1.87
2018-04-02T18:26:30.628Z,3.10
2018-04-02T18:28:59.546Z,2.10
2018-04-02T18:31:27.712Z,2.23
2018-04-02T18:33:55.859Z,2.60
2018-04-02T18:36:24.743Z,2.20
2018-04-02T18:38:53.641Z,2.30
2018-04-02T18:41:21.764Z,1.73
2018-04-02T18:43:49.920Z,1.90
2018-04-02T18:46:18.051Z,2.53
2018-04-02T18:48:46.973Z,2.83
2018-04-02T18:51:15.218Z,3.70
2018-04-02T18:53:44.117Z,2.70
2018-04-02T18:56:12.246Z,3.70
2018-04-02T18:58:40.375Z,5.70
2018-04-02T19:01:08.546Z,3.00
2018-04-02T19:03:36.663Z,2.70
2018-04-02T19:06:04.796Z,1.90
2018-04-02T19:08:32.931Z,3.00
2018-04-02T19:11:01.854Z,3.47
2018-04-02T19:13:29.986Z,2.90
2018-04-02T19:15:58.894Z,3.30
2018-04-02T19:18:27.065Z,2.30
2018-04-02T19:20:55.214Z,3.30
2018-04-02T19:23:23.350Z,3.90
2018-04-02T19:25:51.486Z,3.10
2018-04-02T19:28:19.650Z,2.27
2018-04-02T19:30:47.817Z,3.70
2018-04-02T19:33:15.985Z,2.97
2018-04-02T19:35:44.932Z,2.90
2018-04-02T19:38:13.071Z,3.10
2018-04-02T19:40:41.317Z,2.00
2018-04-02T19:43:10.219Z,2.30
2018-04-02T19:45:38.380Z,2.13
2018-04-02T19:48:07.278Z,2.17
2018-04-02T19:50:36.854Z,2.37
2018-04-02T19:53:04.976Z,6.37
2018-04-02T19:55:33.108Z,2.20
2018-04-02T19:58:02.011Z,2.47
2018-04-02T20:00:30.969Z,2.40
2018-04-02T20:02:59.104Z,3.67
2018-04-02T20:05:27.220Z,2.67
2018-04-02T20:07:55.355Z,4.00
2018-04-02T20:10:23.495Z,3.10
2018-04-02T20:12:51.639Z,3.50
2018-04-02T20:15:20.522Z,3.63
2018-04-02T20:17:48.658Z,2.57
2018-04-02T20:20:16.773Z,2.63
2018-04-02T20:22:45.673Z,2.37
2018-04-02T20:25:13.829Z,3.00
2018-04-02T20:27:41.962Z,3.60
2018-04-02T20:30:10.190Z,2.20
2018-04-02T20:32:39.101Z,2.50
2018-04-02T20:35:07.271Z,3.20
2018-04-02T20:37:35.443Z,2.93
2018-04-02T20:40:03.627Z,2.37
2018-04-02T20:42:31.763Z,2.60
2018-04-02T20:45:00.673Z,1.90
2018-04-02T20:47:28.813Z,2.33
2018-04-02T20:49:57.364Z,2.10
2018-04-02T20:52:25.842Z,2.37
2018-04-02T20:54:53.952Z,2.93
2018-04-02T20:57:22.898Z,2.40
2018-04-02T20:59:51.049Z,2.60
2018-04-02T21:02:19.168Z,2.23
2018-04-02T21:04:47.314Z,2.73
2018-04-02T21:07:15.486Z,2.57
2018-04-02T21:09:43.618Z,2.10
2018-04-02T21:12:11.749Z,2.53
2018-04-02T21:14:39.896Z,1.97
2018-04-02T21:17:08.018Z,2.27
2018-04-02T21:19:36.910Z,2.40
2018-04-02T21:22:05.875Z,2.73
2018-04-02T21:24:34.010Z,2.17
2018-04-02T21:27:02.324Z,2.70
2018-04-02T21:29:30.452Z,2.27
2018-04-02T21:31:58.566Z,2.20
2018-04-02T21:34:26.726Z,2.20
2018-04-02T21:36:55.625Z,2.10
2018-04-02T21:39:23.795Z,2.43
2018-04-02T21:41:51.913Z,2.13
2018-04-02T21:44:20.067Z,2.30
2018-04-02T21:46:48.361Z,1.93
2018-04-02T21:49:16.497Z,1.97
2018-04-02T21:51:44.632Z,2.07
2018-04-02T21:54:12.765Z,2.20
2018-04-02T21:56:41.310Z,2.03
2018-04-02T21:59:09.441Z,2.17
2018-04-02T22:01:37.563Z,1.70
2018-04-02T22:04:06.471Z,2.07
2018-04-02T22:06:47.131Z,1.90
2018-04-02T22:09:16.054Z,2.13
2018-04-02T22:11:44.559Z,2.33
2018-04-02T22:14:12.698Z,1.73
2018-04-02T22:16:40.847Z,1.60
2018-04-02T22:19:09.757Z,1.90
2018-04-02T22:21:37.890Z,1.87
2018-04-02T22:24:06.778Z,1.80
2018-04-02T22:26:35.686Z,2.07
2018-04-02T22:29:04.708Z,1.70
2018-04-02T22:31:32.930Z,1.67
2018-04-02T22:34:01.049Z,1.67
2018-04-02T22:36:29.220Z,1.67
2018-04-02T22:38:57.360Z,1.57
2018-04-02T22:41:26.590Z,1.63
2018-04-02T22:43:54.771Z,1.50
2018-04-02T22:46:22.938Z,2.57
2018-04-02T22:48:51.073Z,1.67
2018-04-02T22:51:19.227Z,1.70
2018-04-02T22:53:51.094Z,1.90
2018-04-02T22:56:20.049Z,1.70
2018-04-02T22:58:48.211Z,1.90
2018-04-02T23:01:16.442Z,1.70
2018-04-02T23:03:44.574Z,1.70
2018-04-02T23:06:12.715Z,1.73
2018-04-02T23:08:40.842Z,2.20
2018-04-02T23:11:09.806Z,1.47
2018-04-02T23:13:37.938Z,1.60
2018-04-02T23:16:06.068Z,1.60
2018-04-02T23:18:34.968Z,1.90
2018-04-02T23:21:03.953Z,1.87
2018-04-02T23:23:32.939Z,1.93
2018-04-02T23:26:01.042Z,1.90
2018-04-02T23:28:29.177Z,1.90
2018-04-02T23:30:57.478Z,1.80
2018-04-02T23:33:25.622Z,1.93
2018-04-02T23:35:53.757Z,1.80
2018-04-02T23:38:21.898Z,1.50
2018-04-02T23:40:50.043Z,1.40
2018-04-02T23:43:18.194Z,1.90
2018-04-02T23:45:47.163Z,1.80
2018-04-02T23:48:15.319Z,1.87
2018-04-02T23:50:43.567Z,2.00
2018-04-02T23:53:11.704Z,1.60
2018-04-02T23:55:40.014Z,1.53
2018-04-02T23:58:08.207Z,1.90
